sensor_id;sensor_type;location;lat;lon;timestamp;P1;durP1;ratioP1;P2;durP2;ratioP2
26702;SDS011;14316;51.074;3.704;2023-02-22T00:00:41;126.68;;;39.08;;
26702;SDS011;14316;51.074;3.704;2023-02-22T00:03:21;136.15;;;39.47;;
26702;SDS011;14316;51.074;3.704;2023-02-22T00:05:52;107.07;;;39.35;;
26702;SDS011;14316;51.074;3.704;2023-02-22T00:08:27;112.45;;;39.72;;
26702;SDS011;14316;51.074;3.704;2023-02-22T00:10:58;160.10;;;41.28;;
26702;SDS011;14316;51.074;3.704;2023-02-22T00:13:26;176.13;;;44.33;;
26702;SDS011;14316;51.074;3.704;2023-02-22T00:15:53;110.07;;;41.92;;
26702;SDS011;14316;51.074;3.704;2023-02-22T00:18:23;117.25;;;42.92;;
26702;SDS011;14316;51.074;3.704;2023-02-22T00:20:52;112.80;;;43.30;;
26702;SDS011;14316;51.074;3.704;2023-02-22T00:23:20;104.72;;;38.20;;
26702;SDS011;14316;51.074;3.704;2023-02-22T00:25:47;118.25;;;36.92;;
26702;SDS011;14316;51.074;3.704;2023-02-22T00:28:15;98.47;;;37.00;;
26702;SDS011;14316;51.074;3.704;2023-02-22T00:30:43;99.53;;;38.55;;
26702;SDS011;14316;51.074;3.704;2023-02-22T00:33:10;104.30;;;37.28;;
26702;SDS011;14316;51.074;3.704;2023-02-22T00:35:37;100.85;;;42.35;;
26702;SDS011;14316;51.074;3.704;2023-02-22T00:38:04;98.60;;;38.20;;
26702;SDS011;14316;51.074;3.704;2023-02-22T00:40:31;82.60;;;35.95;;
26702;SDS011;14316;51.074;3.704;2023-02-22T00:42:58;88.07;;;37.08;;
26702;SDS011;14316;51.074;3.704;2023-02-22T00:45:26;90.88;;;38.53;;
26702;SDS011;14316;51.074;3.704;2023-02-22T00:47:54;81.90;;;35.28;;
26702;SDS011;14316;51.074;3.704;2023-02-22T00:50:21;91.70;;;36.65;;
26702;SDS011;14316;51.074;3.704;2023-02-22T00:52:48;87.13;;;36.83;;
26702;SDS011;14316;51.074;3.704;2023-02-22T00:55:19;97.45;;;35.70;;
26702;SDS011;14316;51.074;3.704;2023-02-22T00:57:50;84.32;;;35.38;;
26702;SDS011;14316;51.074;3.704;2023-02-22T01:00:22;81.15;;;36.45;;
26702;SDS011;14316;51.074;3.704;2023-02-22T01:02:51;77.40;;;34.35;;
26702;SDS011;14316;51.074;3.704;2023-02-22T01:05:19;96.60;;;35.28;;
26702;SDS011;14316;51.074;3.704;2023-02-22T01:07:47;89.50;;;34.97;;
26702;SDS011;14316;51.074;3.704;2023-02-22T01:10:13;81.05;;;35.78;;
26702;SDS011;14316;51.074;3.704;2023-02-22T01:12:40;76.32;;;34.17;;
26702;SDS011;14316;51.074;3.704;2023-02-22T01:15:07;72.78;;;33.53;;
26702;SDS011;14316;51.074;3.704;2023-02-22T01:17:35;75.18;;;33.22;;
26702;SDS011;14316;51.074;3.704;2023-02-22T01:20:06;80.05;;;34.58;;
26702;SDS011;14316;51.074;3.704;2023-02-22T01:22:37;70.57;;;35.20;;
26702;SDS011;14316;51.074;3.704;2023-02-22T01:25:08;66.60;;;34.23;;
26702;SDS011;14316;51.074;3.704;2023-02-22T01:27:36;71.30;;;35.85;;
26702;SDS011;14316;51.074;3.704;2023-02-22T01:30:03;78.97;;;35.83;;
26702;SDS011;14316;51.074;3.704;2023-02-22T01:32:35;69.05;;;34.92;;
26702;SDS011;14316;51.074;3.704;2023-02-22T01:35:03;76.05;;;34.97;;
26702;SDS011;14316;51.074;3.704;2023-02-22T01:37:32;65.72;;;33.95;;
26702;SDS011;14316;51.074;3.704;2023-02-22T01:39:59;71.35;;;34.78;;
26702;SDS011;14316;51.074;3.704;2023-02-22T01:42:25;86.20;;;34.78;;
26702;SDS011;14316;51.074;3.704;2023-02-22T01:48:01;71.25;;;34.72;;
26702;SDS011;14316;51.074;3.704;2023-02-22T01:50:33;64.38;;;34.40;;
26702;SDS011;14316;51.074;3.704;2023-02-22T01:53:03;64.90;;;32.30;;
26702;SDS011;14316;51.074;3.704;2023-02-22T01:55:31;95.25;;;34.67;;
26702;SDS011;14316;51.074;3.704;2023-02-22T01:58:00;63.67;;;33.72;;
26702;SDS011;14316;51.074;3.704;2023-02-22T02:00:27;60.90;;;32.08;;
26702;SDS011;14316;51.074;3.704;2023-02-22T02:02:58;64.13;;;32.53;;
26702;SDS011;14316;51.074;3.704;2023-02-22T02:05:34;59.15;;;32.47;;
26702;SDS011;14316;51.074;3.704;2023-02-22T02:08:04;61.38;;;32.15;;
26702;SDS011;14316;51.074;3.704;2023-02-22T02:10:55;63.20;;;32.38;;
26702;SDS011;14316;51.074;3.704;2023-02-22T02:13:23;60.85;;;33.10;;
26702;SDS011;14316;51.074;3.704;2023-02-22T02:15:52;57.58;;;32.45;;
26702;SDS011;14316;51.074;3.704;2023-02-22T02:18:19;69.97;;;33.35;;
26702;SDS011;14316;51.074;3.704;2023-02-22T02:35:25;57.88;;;33.63;;
26702;SDS011;14316;51.074;3.704;2023-02-22T02:44:02;61.85;;;33.63;;
26702;SDS011;14316;51.074;3.704;2023-02-22T02:49:30;58.17;;;32.97;;
26702;SDS011;14316;51.074;3.704;2023-02-22T02:52:11;57.10;;;32.65;;
26702;SDS011;14316;51.074;3.704;2023-02-22T02:54:40;58.90;;;32.75;;
26702;SDS011;14316;51.074;3.704;2023-02-22T02:57:07;54.53;;;31.85;;
26702;SDS011;14316;51.074;3.704;2023-02-22T02:59:34;58.97;;;32.95;;
26702;SDS011;14316;51.074;3.704;2023-02-22T03:10:35;54.90;;;32.17;;
26702;SDS011;14316;51.074;3.704;2023-02-22T03:19:52;59.92;;;32.50;;
26702;SDS011;14316;51.074;3.704;2023-02-22T03:22:06;55.13;;;32.72;;
26702;SDS011;14316;51.074;3.704;2023-02-22T03:24:41;58.45;;;33.92;;
26702;SDS011;14316;51.074;3.704;2023-02-22T03:27:18;56.67;;;34.25;;
26702;SDS011;14316;51.074;3.704;2023-02-22T03:29:54;56.85;;;32.72;;
26702;SDS011;14316;51.074;3.704;2023-02-22T03:32:26;47.40;;;26.00;;
26702;SDS011;14316;51.074;3.704;2023-02-22T03:35:04;62.47;;;34.20;;
26702;SDS011;14316;51.074;3.704;2023-02-22T03:37:35;58.97;;;35.05;;
26702;SDS011;14316;51.074;3.704;2023-02-22T03:40:06;60.92;;;33.42;;
26702;SDS011;14316;51.074;3.704;2023-02-22T03:42:38;55.03;;;33.28;;
26702;SDS011;14316;51.074;3.704;2023-02-22T03:45:13;56.17;;;34.50;;
26702;SDS011;14316;51.074;3.704;2023-02-22T03:47:43;57.20;;;33.72;;
26702;SDS011;14316;51.074;3.704;2023-02-22T03:50:17;54.25;;;32.15;;
26702;SDS011;14316;51.074;3.704;2023-02-22T03:52:46;54.72;;;32.17;;
26702;SDS011;14316;51.074;3.704;2023-02-22T03:55:13;51.15;;;32.53;;
26702;SDS011;14316;51.074;3.704;2023-02-22T03:57:45;52.53;;;32.38;;
26702;SDS011;14316;51.074;3.704;2023-02-22T04:00:16;49.90;;;31.50;;
26702;SDS011;14316;51.074;3.704;2023-02-22T04:02:48;52.95;;;32.78;;
26702;SDS011;14316;51.074;3.704;2023-02-22T04:05:14;51.10;;;31.90;;
26702;SDS011;14316;51.074;3.704;2023-02-22T04:07:41;50.08;;;31.65;;
26702;SDS011;14316;51.074;3.704;2023-02-22T04:10:07;47.65;;;30.52;;
26702;SDS011;14316;51.074;3.704;2023-02-22T04:12:35;45.80;;;30.42;;
26702;SDS011;14316;51.074;3.704;2023-02-22T04:15:02;50.33;;;31.10;;
26702;SDS011;14316;51.074;3.704;2023-02-22T04:17:28;47.15;;;29.83;;
26702;SDS011;14316;51.074;3.704;2023-02-22T04:19:54;47.35;;;30.25;;
26702;SDS011;14316;51.074;3.704;2023-02-22T04:22:20;43.05;;;29.08;;
26702;SDS011;14316;51.074;3.704;2023-02-22T04:24:46;45.13;;;29.23;;
26702;SDS011;14316;51.074;3.704;2023-02-22T04:27:13;42.30;;;28.73;;
26702;SDS011;14316;51.074;3.704;2023-02-22T04:29:39;45.30;;;29.15;;
26702;SDS011;14316;51.074;3.704;2023-02-22T04:32:05;42.53;;;28.65;;
26702;SDS011;14316;51.074;3.704;2023-02-22T04:34:31;41.03;;;29.25;;
26702;SDS011;14316;51.074;3.704;2023-02-22T04:36:58;42.15;;;28.58;;
26702;SDS011;14316;51.074;3.704;2023-02-22T04:39:24;43.13;;;29.02;;
26702;SDS011;14316;51.074;3.704;2023-02-22T04:41:50;42.00;;;28.00;;
26702;SDS011;14316;51.074;3.704;2023-02-22T04:44:16;40.97;;;27.67;;
26702;SDS011;14316;51.074;3.704;2023-02-22T04:46:42;40.45;;;28.80;;
26702;SDS011;14316;51.074;3.704;2023-02-22T04:49:10;41.28;;;28.85;;
26702;SDS011;14316;51.074;3.704;2023-02-22T04:51:36;40.88;;;28.00;;
26702;SDS011;14316;51.074;3.704;2023-02-22T04:54:02;42.58;;;28.95;;
26702;SDS011;14316;51.074;3.704;2023-02-22T04:56:28;47.70;;;28.95;;
26702;SDS011;14316;51.074;3.704;2023-02-22T04:58:54;42.72;;;28.88;;
26702;SDS011;14316;51.074;3.704;2023-02-22T05:01:20;43.45;;;29.05;;
26702;SDS011;14316;51.074;3.704;2023-02-22T05:03:48;41.97;;;28.38;;
26702;SDS011;14316;51.074;3.704;2023-02-22T05:06:15;43.72;;;29.33;;
26702;SDS011;14316;51.074;3.704;2023-02-22T05:08:42;42.70;;;28.70;;
26702;SDS011;14316;51.074;3.704;2023-02-22T05:11:08;42.10;;;28.70;;
26702;SDS011;14316;51.074;3.704;2023-02-22T05:13:34;42.17;;;28.75;;
26702;SDS011;14316;51.074;3.704;2023-02-22T05:16:01;45.42;;;29.35;;
26702;SDS011;14316;51.074;3.704;2023-02-22T05:18:27;44.47;;;29.42;;
26702;SDS011;14316;51.074;3.704;2023-02-22T05:20:53;40.53;;;27.83;;
26702;SDS011;14316;51.074;3.704;2023-02-22T05:23:19;43.67;;;29.35;;
26702;SDS011;14316;51.074;3.704;2023-02-22T05:25:46;43.88;;;28.67;;
26702;SDS011;14316;51.074;3.704;2023-02-22T05:28:13;45.65;;;29.98;;
26702;SDS011;14316;51.074;3.704;2023-02-22T05:30:39;49.47;;;30.95;;
26702;SDS011;14316;51.074;3.704;2023-02-22T05:33:06;44.22;;;30.08;;
26702;SDS011;14316;51.074;3.704;2023-02-22T05:35:32;46.55;;;30.02;;
26702;SDS011;14316;51.074;3.704;2023-02-22T05:38:01;42.95;;;30.02;;
26702;SDS011;14316;51.074;3.704;2023-02-22T05:40:28;45.85;;;30.10;;
26702;SDS011;14316;51.074;3.704;2023-02-22T05:42:55;47.20;;;30.02;;
26702;SDS011;14316;51.074;3.704;2023-02-22T05:45:23;45.80;;;30.95;;
26702;SDS011;14316;51.074;3.704;2023-02-22T05:47:51;46.17;;;30.27;;
26702;SDS011;14316;51.074;3.704;2023-02-22T05:50:18;45.92;;;30.63;;
26702;SDS011;14316;51.074;3.704;2023-02-22T05:52:45;43.30;;;30.23;;
26702;SDS011;14316;51.074;3.704;2023-02-22T05:55:13;45.65;;;28.98;;
26702;SDS011;14316;51.074;3.704;2023-02-22T05:57:41;42.80;;;29.90;;
26702;SDS011;14316;51.074;3.704;2023-02-22T06:00:07;41.22;;;28.55;;
26702;SDS011;14316;51.074;3.704;2023-02-22T06:02:34;36.67;;;26.98;;
26702;SDS011;14316;51.074;3.704;2023-02-22T06:05:01;39.30;;;28.92;;
26702;SDS011;14316;51.074;3.704;2023-02-22T06:07:27;41.20;;;28.70;;
26702;SDS011;14316;51.074;3.704;2023-02-22T06:09:53;40.17;;;28.02;;
26702;SDS011;14316;51.074;3.704;2023-02-22T06:12:18;40.45;;;28.08;;
26702;SDS011;14316;51.074;3.704;2023-02-22T06:14:45;41.45;;;29.33;;
26702;SDS011;14316;51.074;3.704;2023-02-22T06:17:12;39.90;;;27.85;;
26702;SDS011;14316;51.074;3.704;2023-02-22T06:19:39;40.15;;;27.80;;
26702;SDS011;14316;51.074;3.704;2023-02-22T06:22:05;40.50;;;27.25;;
26702;SDS011;14316;51.074;3.704;2023-02-22T06:24:31;38.30;;;28.23;;
26702;SDS011;14316;51.074;3.704;2023-02-22T06:26:59;41.50;;;27.92;;
26702;SDS011;14316;51.074;3.704;2023-02-22T06:29:27;40.83;;;29.33;;
26702;SDS011;14316;51.074;3.704;2023-02-22T06:31:53;40.58;;;28.10;;
26702;SDS011;14316;51.074;3.704;2023-02-22T06:34:20;38.83;;;27.38;;
26702;SDS011;14316;51.074;3.704;2023-02-22T06:36:46;40.38;;;27.33;;
26702;SDS011;14316;51.074;3.704;2023-02-22T06:39:14;38.30;;;26.95;;
26702;SDS011;14316;51.074;3.704;2023-02-22T06:41:41;39.90;;;27.33;;
26702;SDS011;14316;51.074;3.704;2023-02-22T06:44:08;36.90;;;27.30;;
26702;SDS011;14316;51.074;3.704;2023-02-22T06:46:34;37.25;;;26.65;;
26702;SDS011;14316;51.074;3.704;2023-02-22T06:49:01;40.00;;;26.63;;
26702;SDS011;14316;51.074;3.704;2023-02-22T06:51:28;38.65;;;25.05;;
26702;SDS011;14316;51.074;3.704;2023-02-22T06:53:55;35.88;;;24.90;;
26702;SDS011;14316;51.074;3.704;2023-02-22T06:56:21;38.45;;;27.10;;
26702;SDS011;14316;51.074;3.704;2023-02-22T06:58:47;36.70;;;26.15;;
26702;SDS011;14316;51.074;3.704;2023-02-22T07:01:13;39.33;;;27.95;;
26702;SDS011;14316;51.074;3.704;2023-02-22T07:03:40;42.78;;;27.60;;
26702;SDS011;14316;51.074;3.704;2023-02-22T07:06:07;40.25;;;28.13;;
26702;SDS011;14316;51.074;3.704;2023-02-22T07:08:34;41.03;;;27.08;;
26702;SDS011;14316;51.074;3.704;2023-02-22T07:11:00;39.40;;;26.45;;
26702;SDS011;14316;51.074;3.704;2023-02-22T07:13:26;39.30;;;26.75;;
26702;SDS011;14316;51.074;3.704;2023-02-22T07:15:53;38.00;;;26.98;;
26702;SDS011;14316;51.074;3.704;2023-02-22T07:18:20;39.65;;;28.08;;
26702;SDS011;14316;51.074;3.704;2023-02-22T07:20:46;41.05;;;28.63;;
26702;SDS011;14316;51.074;3.704;2023-02-22T07:23:15;36.50;;;26.55;;
26702;SDS011;14316;51.074;3.704;2023-02-22T07:25:42;36.45;;;25.58;;
26702;SDS011;14316;51.074;3.704;2023-02-22T07:28:08;36.58;;;25.23;;
26702;SDS011;14316;51.074;3.704;2023-02-22T07:30:37;41.40;;;25.42;;
26702;SDS011;14316;51.074;3.704;2023-02-22T07:33:07;35.88;;;25.95;;
26702;SDS011;14316;51.074;3.704;2023-02-22T07:35:35;39.88;;;27.30;;
26702;SDS011;14316;51.074;3.704;2023-02-22T07:38:03;40.95;;;27.65;;
26702;SDS011;14316;51.074;3.704;2023-02-22T07:40:32;42.25;;;28.38;;
26702;SDS011;14316;51.074;3.704;2023-02-22T07:43:18;40.53;;;27.35;;
26702;SDS011;14316;51.074;3.704;2023-02-22T07:45:45;42.08;;;27.17;;
26702;SDS011;14316;51.074;3.704;2023-02-22T07:48:13;43.72;;;27.35;;
26702;SDS011;14316;51.074;3.704;2023-02-22T07:50:40;40.33;;;28.05;;
26702;SDS011;14316;51.074;3.704;2023-02-22T07:53:09;37.55;;;26.30;;
26702;SDS011;14316;51.074;3.704;2023-02-22T07:55:38;36.78;;;26.38;;
26702;SDS011;14316;51.074;3.704;2023-02-22T07:58:05;42.17;;;26.35;;
26702;SDS011;14316;51.074;3.704;2023-02-22T08:00:33;37.60;;;25.85;;
26702;SDS011;14316;51.074;3.704;2023-02-22T08:03:02;37.40;;;25.88;;
26702;SDS011;14316;51.074;3.704;2023-02-22T08:05:32;38.13;;;26.42;;
26702;SDS011;14316;51.074;3.704;2023-02-22T08:08:02;37.47;;;25.73;;
26702;SDS011;14316;51.074;3.704;2023-02-22T08:10:30;36.85;;;26.35;;
26702;SDS011;14316;51.074;3.704;2023-02-22T08:12:56;41.28;;;24.92;;
26702;SDS011;14316;51.074;3.704;2023-02-22T08:15:41;40.38;;;23.85;;
26702;SDS011;14316;51.074;3.704;2023-02-22T08:18:12;38.08;;;24.15;;
26702;SDS011;14316;51.074;3.704;2023-02-22T08:20:41;34.47;;;24.63;;
26702;SDS011;14316;51.074;3.704;2023-02-22T08:23:09;39.83;;;24.10;;
26702;SDS011;14316;51.074;3.704;2023-02-22T08:25:37;36.58;;;24.58;;
26702;SDS011;14316;51.074;3.704;2023-02-22T08:28:07;38.67;;;24.50;;
26702;SDS011;14316;51.074;3.704;2023-02-22T08:30:36;42.40;;;24.67;;
26702;SDS011;14316;51.074;3.704;2023-02-22T08:33:03;34.78;;;23.00;;
26702;SDS011;14316;51.074;3.704;2023-02-22T08:35:30;35.72;;;23.50;;
26702;SDS011;14316;51.074;3.704;2023-02-22T08:37:59;30.77;;;22.17;;
26702;SDS011;14316;51.074;3.704;2023-02-22T08:40:27;30.73;;;21.92;;
26702;SDS011;14316;51.074;3.704;2023-02-22T08:42:59;30.60;;;20.77;;
26702;SDS011;14316;51.074;3.704;2023-02-22T08:45:26;28.95;;;21.45;;
26702;SDS011;14316;51.074;3.704;2023-02-22T08:47:52;27.98;;;20.95;;
26702;SDS011;14316;51.074;3.704;2023-02-22T08:50:22;27.55;;;20.10;;
26702;SDS011;14316;51.074;3.704;2023-02-22T08:55:18;30.52;;;21.92;;
26702;SDS011;14316;51.074;3.704;2023-02-22T08:57:48;35.67;;;20.58;;
26702;SDS011;14316;51.074;3.704;2023-02-22T09:00:15;33.92;;;21.42;;
26702;SDS011;14316;51.074;3.704;2023-02-22T09:02:45;33.13;;;21.13;;
26702;SDS011;14316;51.074;3.704;2023-02-22T09:05:11;35.58;;;20.98;;
26702;SDS011;14316;51.074;3.704;2023-02-22T09:07:39;39.05;;;22.15;;
26702;SDS011;14316;51.074;3.704;2023-02-22T09:10:07;39.17;;;23.20;;
26702;SDS011;14316;51.074;3.704;2023-02-22T09:12:39;41.53;;;23.75;;
26702;SDS011;14316;51.074;3.704;2023-02-22T09:15:06;37.55;;;21.92;;
26702;SDS011;14316;51.074;3.704;2023-02-22T09:17:32;33.83;;;21.80;;
26702;SDS011;14316;51.074;3.704;2023-02-22T09:20:01;34.80;;;22.05;;
26702;SDS011;14316;51.074;3.704;2023-02-22T09:22:29;27.08;;;21.40;;
26702;SDS011;14316;51.074;3.704;2023-02-22T09:24:55;26.65;;;19.75;;
26702;SDS011;14316;51.074;3.704;2023-02-22T09:27:21;28.67;;;20.85;;
26702;SDS011;14316;51.074;3.704;2023-02-22T09:29:47;26.52;;;19.58;;
26702;SDS011;14316;51.074;3.704;2023-02-22T09:32:14;31.25;;;21.90;;
26702;SDS011;14316;51.074;3.704;2023-02-22T09:34:42;28.27;;;21.10;;
26702;SDS011;14316;51.074;3.704;2023-02-22T09:37:10;30.92;;;22.38;;
26702;SDS011;14316;51.074;3.704;2023-02-22T09:39:37;31.30;;;21.73;;
26702;SDS011;14316;51.074;3.704;2023-02-22T09:47:12;30.67;;;21.75;;
26702;SDS011;14316;51.074;3.704;2023-02-22T09:49:43;31.30;;;20.90;;
26702;SDS011;14316;51.074;3.704;2023-02-22T09:52:29;28.05;;;21.08;;
26702;SDS011;14316;51.074;3.704;2023-02-22T09:55:07;26.13;;;21.80;;
26702;SDS011;14316;51.074;3.704;2023-02-22T09:57:59;27.08;;;21.60;;
26702;SDS011;14316;51.074;3.704;2023-02-22T10:00:30;30.38;;;23.20;;
26702;SDS011;14316;51.074;3.704;2023-02-22T10:03:16;33.17;;;23.45;;
26702;SDS011;14316;51.074;3.704;2023-02-22T10:06:11;29.70;;;22.20;;
26702;SDS011;14316;51.074;3.704;2023-02-22T10:08:42;32.25;;;23.83;;
26702;SDS011;14316;51.074;3.704;2023-02-22T10:11:15;30.00;;;24.15;;
26702;SDS011;14316;51.074;3.704;2023-02-22T10:19:19;29.55;;;25.05;;
26702;SDS011;14316;51.074;3.704;2023-02-22T10:24:25;32.47;;;25.20;;
26702;SDS011;14316;51.074;3.704;2023-02-22T10:27:21;32.85;;;24.60;;
26702;SDS011;14316;51.074;3.704;2023-02-22T10:30:06;36.45;;;26.38;;
26702;SDS011;14316;51.074;3.704;2023-02-22T10:32:58;33.53;;;24.70;;
26702;SDS011;14316;51.074;3.704;2023-02-22T10:35:37;34.60;;;25.58;;
26702;SDS011;14316;51.074;3.704;2023-02-22T10:38:18;34.35;;;27.77;;
26702;SDS011;14316;51.074;3.704;2023-02-22T10:40:49;40.38;;;29.33;;
26702;SDS011;14316;51.074;3.704;2023-02-22T10:43:27;35.30;;;27.83;;
26702;SDS011;14316;51.074;3.704;2023-02-22T10:45:58;36.92;;;27.95;;
26702;SDS011;14316;51.074;3.704;2023-02-22T10:48:27;37.10;;;29.65;;
26702;SDS011;14316;51.074;3.704;2023-02-22T10:50:59;41.35;;;31.83;;
26702;SDS011;14316;51.074;3.704;2023-02-22T10:58:53;35.63;;;26.52;;
26702;SDS011;14316;51.074;3.704;2023-02-22T11:04:15;41.35;;;33.00;;
26702;SDS011;14316;51.074;3.704;2023-02-22T11:07:23;44.10;;;36.33;;
26702;SDS011;14316;51.074;3.704;2023-02-22T11:09:53;44.55;;;34.15;;
26702;SDS011;14316;51.074;3.704;2023-02-22T11:12:31;48.65;;;35.88;;
26702;SDS011;14316;51.074;3.704;2023-02-22T11:17:47;46.35;;;36.25;;
26702;SDS011;14316;51.074;3.704;2023-02-22T11:20:19;48.20;;;34.08;;
26702;SDS011;14316;51.074;3.704;2023-02-22T11:22:56;40.03;;;35.10;;
26702;SDS011;14316;51.074;3.704;2023-02-22T11:25:32;43.33;;;33.28;;
26702;SDS011;14316;51.074;3.704;2023-02-22T11:28:10;45.20;;;34.63;;
26702;SDS011;14316;51.074;3.704;2023-02-22T11:30:41;44.28;;;34.42;;
26702;SDS011;14316;51.074;3.704;2023-02-22T11:33:17;45.70;;;37.17;;
26702;SDS011;14316;51.074;3.704;2023-02-22T11:35:49;45.30;;;36.85;;
26702;SDS011;14316;51.074;3.704;2023-02-22T11:43:35;47.72;;;37.38;;
26702;SDS011;14316;51.074;3.704;2023-02-22T11:48:34;48.25;;;38.08;;
26702;SDS011;14316;51.074;3.704;2023-02-22T11:51:05;46.50;;;34.22;;
26702;SDS011;14316;51.074;3.704;2023-02-22T11:59:18;47.28;;;38.00;;
26702;SDS011;14316;51.074;3.704;2023-02-22T12:21:19;63.13;;;43.83;;
26702;SDS011;14316;51.074;3.704;2023-02-22T12:23:52;43.33;;;29.83;;
26702;SDS011;14316;51.074;3.704;2023-02-22T12:26:37;61.70;;;46.38;;
26702;SDS011;14316;51.074;3.704;2023-02-22T12:32:03;62.38;;;43.40;;
26702;SDS011;14316;51.074;3.704;2023-02-22T12:34:35;63.90;;;45.75;;
26702;SDS011;14316;51.074;3.704;2023-02-22T12:37:19;66.13;;;45.85;;
26702;SDS011;14316;51.074;3.704;2023-02-22T12:40:15;67.60;;;50.08;;
26702;SDS011;14316;51.074;3.704;2023-02-22T12:46:26;72.65;;;54.05;;
26702;SDS011;14316;51.074;3.704;2023-02-22T12:51:43;81.82;;;56.20;;
26702;SDS011;14316;51.074;3.704;2023-02-22T12:57:33;78.93;;;54.17;;
26702;SDS011;14316;51.074;3.704;2023-02-22T13:03:04;87.15;;;57.50;;
26702;SDS011;14316;51.074;3.704;2023-02-22T13:25:27;107.45;;;64.25;;
26702;SDS011;14316;51.074;3.704;2023-02-22T13:48:23;105.30;;;63.85;;
26702;SDS011;14316;51.074;3.704;2023-02-22T13:53:55;112.47;;;62.03;;
26702;SDS011;14316;51.074;3.704;2023-02-22T13:56:29;103.32;;;59.58;;
26702;SDS011;14316;51.074;3.704;2023-02-22T13:58:59;118.20;;;65.53;;
26702;SDS011;14316;51.074;3.704;2023-02-22T14:07:04;103.85;;;59.53;;
26702;SDS011;14316;51.074;3.704;2023-02-22T14:10:20;110.60;;;59.55;;
26702;SDS011;14316;51.074;3.704;2023-02-22T14:13:05;113.10;;;66.13;;
26702;SDS011;14316;51.074;3.704;2023-02-22T14:15:32;113.18;;;60.95;;
26702;SDS011;14316;51.074;3.704;2023-02-22T14:18:03;116.95;;;58.97;;
26702;SDS011;14316;51.074;3.704;2023-02-22T14:20:37;133.93;;;70.35;;
26702;SDS011;14316;51.074;3.704;2023-02-22T14:25:47;133.25;;;66.80;;
26702;SDS011;14316;51.074;3.704;2023-02-22T14:31:08;125.72;;;62.63;;
26702;SDS011;14316;51.074;3.704;2023-02-22T14:33:51;131.20;;;65.60;;
26702;SDS011;14316;51.074;3.704;2023-02-22T14:39:29;135.40;;;71.20;;
26702;SDS011;14316;51.074;3.704;2023-02-22T14:47:30;138.93;;;67.75;;
26702;SDS011;14316;51.074;3.704;2023-02-22T14:50:05;133.98;;;71.85;;
26702;SDS011;14316;51.074;3.704;2023-02-22T14:52:38;133.25;;;71.25;;
26702;SDS011;14316;51.074;3.704;2023-02-22T14:55:15;142.75;;;72.22;;
26702;SDS011;14316;51.074;3.704;2023-02-22T15:00:42;129.50;;;67.95;;
26702;SDS011;14316;51.074;3.704;2023-02-22T15:03:32;134.88;;;68.57;;
26702;SDS011;14316;51.074;3.704;2023-02-22T15:06:04;123.65;;;65.53;;
26702;SDS011;14316;51.074;3.704;2023-02-22T15:08:31;114.07;;;60.90;;
26702;SDS011;14316;51.074;3.704;2023-02-22T15:10:59;120.20;;;63.35;;
26702;SDS011;14316;51.074;3.704;2023-02-22T15:13:27;117.70;;;65.90;;
26702;SDS011;14316;51.074;3.704;2023-02-22T15:16:01;122.95;;;64.88;;
26702;SDS011;14316;51.074;3.704;2023-02-22T15:18:45;122.57;;;65.03;;
26702;SDS011;14316;51.074;3.704;2023-02-22T15:21:13;124.55;;;66.47;;
26702;SDS011;14316;51.074;3.704;2023-02-22T15:23:51;124.68;;;65.07;;
26702;SDS011;14316;51.074;3.704;2023-02-22T15:26:22;108.28;;;59.70;;
26702;SDS011;14316;51.074;3.704;2023-02-22T15:28:57;104.53;;;58.42;;
26702;SDS011;14316;51.074;3.704;2023-02-22T15:31:33;111.90;;;57.83;;
26702;SDS011;14316;51.074;3.704;2023-02-22T15:36:40;104.22;;;55.75;;
26702;SDS011;14316;51.074;3.704;2023-02-22T15:39:22;105.25;;;56.97;;
26702;SDS011;14316;51.074;3.704;2023-02-22T15:42:04;108.43;;;60.75;;
26702;SDS011;14316;51.074;3.704;2023-02-22T15:44:36;103.40;;;56.97;;
26702;SDS011;14316;51.074;3.704;2023-02-22T15:47:04;107.40;;;57.22;;
26702;SDS011;14316;51.074;3.704;2023-02-22T15:49:32;101.47;;;51.85;;
26702;SDS011;14316;51.074;3.704;2023-02-22T15:52:05;100.15;;;51.55;;
26702;SDS011;14316;51.074;3.704;2023-02-22T15:54:38;89.65;;;46.65;;
26702;SDS011;14316;51.074;3.704;2023-02-22T15:57:08;88.85;;;45.72;;
26702;SDS011;14316;51.074;3.704;2023-02-22T15:59:42;86.90;;;46.67;;
26702;SDS011;14316;51.074;3.704;2023-02-22T16:07:44;78.10;;;42.13;;
26702;SDS011;14316;51.074;3.704;2023-02-22T16:10:48;78.18;;;45.55;;
26702;SDS011;14316;51.074;3.704;2023-02-22T16:13:23;85.53;;;47.28;;
26702;SDS011;14316;51.074;3.704;2023-02-22T16:15:52;85.40;;;46.63;;
26702;SDS011;14316;51.074;3.704;2023-02-22T16:18:29;75.60;;;44.17;;
26702;SDS011;14316;51.074;3.704;2023-02-22T16:21:03;85.60;;;47.30;;
26702;SDS011;14316;51.074;3.704;2023-02-22T16:23:29;84.53;;;45.33;;
26702;SDS011;14316;51.074;3.704;2023-02-22T16:26:01;75.25;;;41.88;;
26702;SDS011;14316;51.074;3.704;2023-02-22T16:28:29;75.35;;;46.30;;
26702;SDS011;14316;51.074;3.704;2023-02-22T16:30:58;76.93;;;45.20;;
26702;SDS011;14316;51.074;3.704;2023-02-22T16:33:24;79.72;;;45.25;;
26702;SDS011;14316;51.074;3.704;2023-02-22T16:35:54;70.93;;;43.00;;
26702;SDS011;14316;51.074;3.704;2023-02-22T16:38:22;71.82;;;42.65;;
26702;SDS011;14316;51.074;3.704;2023-02-22T16:40:54;73.45;;;43.75;;
26702;SDS011;14316;51.074;3.704;2023-02-22T16:43:24;75.60;;;44.53;;
26702;SDS011;14316;51.074;3.704;2023-02-22T16:45:53;66.57;;;42.03;;
26702;SDS011;14316;51.074;3.704;2023-02-22T16:50:48;71.68;;;44.97;;
26702;SDS011;14316;51.074;3.704;2023-02-22T16:53:18;72.03;;;45.33;;
26702;SDS011;14316;51.074;3.704;2023-02-22T16:55:46;71.57;;;42.83;;
26702;SDS011;14316;51.074;3.704;2023-02-22T16:58:13;70.55;;;41.72;;
26702;SDS011;14316;51.074;3.704;2023-02-22T17:00:41;79.15;;;49.35;;
26702;SDS011;14316;51.074;3.704;2023-02-22T17:03:15;71.13;;;41.38;;
26702;SDS011;14316;51.074;3.704;2023-02-22T17:05:44;70.13;;;41.17;;
26702;SDS011;14316;51.074;3.704;2023-02-22T17:08:10;70.63;;;40.75;;
26702;SDS011;14316;51.074;3.704;2023-02-22T17:10:37;66.78;;;39.47;;
26702;SDS011;14316;51.074;3.704;2023-02-22T17:13:03;67.10;;;41.38;;
26702;SDS011;14316;51.074;3.704;2023-02-22T17:15:33;68.55;;;41.17;;
26702;SDS011;14316;51.074;3.704;2023-02-22T17:18:00;63.78;;;37.70;;
26702;SDS011;14316;51.074;3.704;2023-02-22T17:20:30;68.53;;;39.97;;
26702;SDS011;14316;51.074;3.704;2023-02-22T17:25:33;63.97;;;38.42;;
26702;SDS011;14316;51.074;3.704;2023-02-22T17:28:03;61.88;;;37.33;;
26702;SDS011;14316;51.074;3.704;2023-02-22T17:30:30;63.85;;;40.20;;
26702;SDS011;14316;51.074;3.704;2023-02-22T17:32:57;70.90;;;41.75;;
26702;SDS011;14316;51.074;3.704;2023-02-22T17:35:29;70.30;;;40.90;;
26702;SDS011;14316;51.074;3.704;2023-02-22T17:37:57;69.53;;;41.03;;
26702;SDS011;14316;51.074;3.704;2023-02-22T17:40:25;69.57;;;42.90;;
26702;SDS011;14316;51.074;3.704;2023-02-22T17:42:52;71.00;;;42.30;;
26702;SDS011;14316;51.074;3.704;2023-02-22T17:45:22;68.93;;;40.88;;
26702;SDS011;14316;51.074;3.704;2023-02-22T17:47:49;68.85;;;41.10;;
26702;SDS011;14316;51.074;3.704;2023-02-22T17:50:17;65.25;;;40.03;;
26702;SDS011;14316;51.074;3.704;2023-02-22T17:52:45;68.13;;;41.72;;